sensor_id;sensor_type;location;lat;lon;timestamp;temperature;humidity
5723;DHT22;2886;49.722;8.612;2023-07-31T00:00:29;19.10;90.40
5723;DHT22;2886;49.722;8.612;2023-07-31T00:02:54;19.10;91.10
5723;DHT22;2886;49.722;8.612;2023-07-31T00:05:20;19.10;90.90
5723;DHT22;2886;49.722;8.612;2023-07-31T00:07:46;19.00;90.20
5723;DHT22;2886;49.722;8.612;2023-07-31T00:10:12;19.10;88.40
5723;DHT22;2886;49.722;8.612;2023-07-31T00:12:39;19.10;88.70
5723;DHT22;2886;49.722;8.612;2023-07-31T00:15:06;19.10;87.70
5723;DHT22;2886;49.722;8.612;2023-07-31T00:17:32;19.10;86.80
5723;DHT22;2886;49.722;8.612;2023-07-31T00:19:58;19.10;87.20
5723;DHT22;2886;49.722;8.612;2023-07-31T00:22:23;19.10;87.60
5723;DHT22;2886;49.722;8.612;2023-07-31T00:24:49;19.10;86.90
5723;DHT22;2886;49.722;8.612;2023-07-31T00:27:14;19.10;86.00
5723;DHT22;2886;49.722;8.612;2023-07-31T00:29:40;19.10;85.40
5723;DHT22;2886;49.722;8.612;2023-07-31T00:32:06;19.20;85.80
5723;DHT22;2886;49.722;8.612;2023-07-31T00:34:32;19.20;86.20
5723;DHT22;2886;49.722;8.612;2023-07-31T00:36:58;19.20;86.00
5723;DHT22;2886;49.722;8.612;2023-07-31T00:39:23;19.20;86.30
5723;DHT22;2886;49.722;8.612;2023-07-31T00:41:49;19.10;86.40
5723;DHT22;2886;49.722;8.612;2023-07-31T00:44:14;19.20;86.40
5723;DHT22;2886;49.722;8.612;2023-07-31T00:46:40;19.20;85.80
5723;DHT22;2886;49.722;8.612;2023-07-31T00:49:06;19.20;86.10
5723;DHT22;2886;49.722;8.612;2023-07-31T00:51:32;19.10;86.30
5723;DHT22;2886;49.722;8.612;2023-07-31T00:53:58;19.20;86.30
5723;DHT22;2886;49.722;8.612;2023-07-31T00:56:24;19.10;87.70
5723;DHT22;2886;49.722;8.612;2023-07-31T00:58:50;19.10;87.20
5723;DHT22;2886;49.722;8.612;2023-07-31T01:01:16;19.10;86.50
5723;DHT22;2886;49.722;8.612;2023-07-31T01:03:42;19.10;87.60
5723;DHT22;2886;49.722;8.612;2023-07-31T01:09:06;19.10;86.50
5723;DHT22;2886;49.722;8.612;2023-07-31T01:11:46;19.10;86.40
5723;DHT22;2886;49.722;8.612;2023-07-31T01:14:13;19.10;87.30
5723;DHT22;2886;49.722;8.612;2023-07-31T01:16:39;19.10;87.20
5723;DHT22;2886;49.722;8.612;2023-07-31T01:19:06;19.10;87.30
5723;DHT22;2886;49.722;8.612;2023-07-31T01:24:28;19.10;87.30
5723;DHT22;2886;49.722;8.612;2023-07-31T01:27:10;19.10;86.90
5723;DHT22;2886;49.722;8.612;2023-07-31T01:29:51;19.10;87.40
5723;DHT22;2886;49.722;8.612;2023-07-31T01:32:21;19.10;87.20
5723;DHT22;2886;49.722;8.612;2023-07-31T01:34:48;19.00;87.40
5723;DHT22;2886;49.722;8.612;2023-07-31T01:37:14;19.10;87.20
5723;DHT22;2886;49.722;8.612;2023-07-31T01:39:40;19.10;87.30
5723;DHT22;2886;49.722;8.612;2023-07-31T01:42:06;19.10;87.00
5723;DHT22;2886;49.722;8.612;2023-07-31T01:44:32;19.10;87.20
5723;DHT22;2886;49.722;8.612;2023-07-31T01:46:58;19.00;87.10
5723;DHT22;2886;49.722;8.612;2023-07-31T01:49:25;19.00;87.70
5723;DHT22;2886;49.722;8.612;2023-07-31T01:51:51;19.00;88.10
5723;DHT22;2886;49.722;8.612;2023-07-31T01:54:16;19.00;87.70
5723;DHT22;2886;49.722;8.612;2023-07-31T01:56:42;19.00;88.20
5723;DHT22;2886;49.722;8.612;2023-07-31T01:59:08;19.00;88.50
5723;DHT22;2886;49.722;8.612;2023-07-31T02:01:33;19.00;88.70
5723;DHT22;2886;49.722;8.612;2023-07-31T02:03:59;18.90;89.20
5723;DHT22;2886;49.722;8.612;2023-07-31T02:06:24;18.90;89.50
5723;DHT22;2886;49.722;8.612;2023-07-31T02:08:50;18.80;90.00
5723;DHT22;2886;49.722;8.612;2023-07-31T02:11:16;18.80;90.20
5723;DHT22;2886;49.722;8.612;2023-07-31T02:13:41;18.80;90.40
5723;DHT22;2886;49.722;8.612;2023-07-31T02:16:07;18.70;90.30
5723;DHT22;2886;49.722;8.612;2023-07-31T02:18:33;18.70;90.70
5723;DHT22;2886;49.722;8.612;2023-07-31T02:20:59;18.70;90.80
5723;DHT22;2886;49.722;8.612;2023-07-31T02:23:25;18.70;90.80
5723;DHT22;2886;49.722;8.612;2023-07-31T02:25:50;18.60;90.90
5723;DHT22;2886;49.722;8.612;2023-07-31T02:28:16;18.60;90.90
5723;DHT22;2886;49.722;8.612;2023-07-31T02:30:45;18.50;91.20
5723;DHT22;2886;49.722;8.612;2023-07-31T02:33:14;18.50;91.40
5723;DHT22;2886;49.722;8.612;2023-07-31T02:35:41;18.50;91.40
5723;DHT22;2886;49.722;8.612;2023-07-31T02:38:07;18.40;91.40
5723;DHT22;2886;49.722;8.612;2023-07-31T02:40:33;18.40;91.70
5723;DHT22;2886;49.722;8.612;2023-07-31T02:42:58;18.40;91.90
5723;DHT22;2886;49.722;8.612;2023-07-31T02:45:24;18.40;91.70
5723;DHT22;2886;49.722;8.612;2023-07-31T02:47:49;18.40;91.70
5723;DHT22;2886;49.722;8.612;2023-07-31T02:50:15;18.30;91.70
5723;DHT22;2886;49.722;8.612;2023-07-31T02:52:41;18.30;91.60
5723;DHT22;2886;49.722;8.612;2023-07-31T02:55:06;18.30;91.80
5723;DHT22;2886;49.722;8.612;2023-07-31T02:57:32;18.30;91.40
5723;DHT22;2886;49.722;8.612;2023-07-31T02:59:58;18.30;91.50
5723;DHT22;2886;49.722;8.612;2023-07-31T03:02:23;18.30;91.20
5723;DHT22;2886;49.722;8.612;2023-07-31T03:04:50;18.30;91.60
5723;DHT22;2886;49.722;8.612;2023-07-31T03:07:15;18.30;92.60
5723;DHT22;2886;49.722;8.612;2023-07-31T03:09:47;18.30;93.40
5723;DHT22;2886;49.722;8.612;2023-07-31T03:12:12;18.30;92.20
5723;DHT22;2886;49.722;8.612;2023-07-31T03:14:38;18.30;92.40
5723;DHT22;2886;49.722;8.612;2023-07-31T03:17:04;18.30;92.30
5723;DHT22;2886;49.722;8.612;2023-07-31T03:19:32;18.30;92.10
5723;DHT22;2886;49.722;8.612;2023-07-31T03:21:59;18.30;92.00
5723;DHT22;2886;49.722;8.612;2023-07-31T03:24:25;18.30;92.00
5723;DHT22;2886;49.722;8.612;2023-07-31T03:26:51;18.30;92.00
5723;DHT22;2886;49.722;8.612;2023-07-31T03:29:17;18.30;92.10
5723;DHT22;2886;49.722;8.612;2023-07-31T03:31:42;18.30;92.20
5723;DHT22;2886;49.722;8.612;2023-07-31T03:34:08;18.30;92.10
5723;DHT22;2886;49.722;8.612;2023-07-31T03:36:33;18.30;92.00
5723;DHT22;2886;49.722;8.612;2023-07-31T03:38:59;18.30;92.00
5723;DHT22;2886;49.722;8.612;2023-07-31T03:41:24;18.30;92.10
5723;DHT22;2886;49.722;8.612;2023-07-31T03:43:51;18.20;91.70
5723;DHT22;2886;49.722;8.612;2023-07-31T03:46:17;18.30;91.80
5723;DHT22;2886;49.722;8.612;2023-07-31T03:48:43;18.30;91.80
5723;DHT22;2886;49.722;8.612;2023-07-31T03:51:08;18.20;91.70
5723;DHT22;2886;49.722;8.612;2023-07-31T03:53:34;18.20;92.00
5723;DHT22;2886;49.722;8.612;2023-07-31T03:55:59;18.20;92.20
5723;DHT22;2886;49.722;8.612;2023-07-31T03:58:25;18.20;92.50
5723;DHT22;2886;49.722;8.612;2023-07-31T04:00:50;18.10;92.20
5723;DHT22;2886;49.722;8.612;2023-07-31T04:03:16;18.20;92.20
5723;DHT22;2886;49.722;8.612;2023-07-31T04:05:42;18.20;92.10
5723;DHT22;2886;49.722;8.612;2023-07-31T04:08:08;18.20;92.10
5723;DHT22;2886;49.722;8.612;2023-07-31T04:10:34;18.20;91.90
5723;DHT22;2886;49.722;8.612;2023-07-31T04:13:00;18.20;92.00
5723;DHT22;2886;49.722;8.612;2023-07-31T04:15:26;18.20;91.90
5723;DHT22;2886;49.722;8.612;2023-07-31T04:17:52;18.20;92.00
5723;DHT22;2886;49.722;8.612;2023-07-31T04:20:17;18.20;91.90
5723;DHT22;2886;49.722;8.612;2023-07-31T04:22:43;18.20;92.00
5723;DHT22;2886;49.722;8.612;2023-07-31T04:25:08;18.20;92.10
5723;DHT22;2886;49.722;8.612;2023-07-31T04:27:34;18.20;92.00
5723;DHT22;2886;49.722;8.612;2023-07-31T04:30:00;18.20;91.90
5723;DHT22;2886;49.722;8.612;2023-07-31T04:32:25;18.20;91.80
5723;DHT22;2886;49.722;8.612;2023-07-31T04:34:51;18.20;91.70
5723;DHT22;2886;49.722;8.612;2023-07-31T04:37:16;18.30;92.10
5723;DHT22;2886;49.722;8.612;2023-07-31T04:39:42;18.20;91.60
5723;DHT22;2886;49.722;8.612;2023-07-31T04:42:08;18.30;92.00
5723;DHT22;2886;49.722;8.612;2023-07-31T04:44:34;18.30;91.70
5723;DHT22;2886;49.722;8.612;2023-07-31T04:47:00;18.30;91.70
5723;DHT22;2886;49.722;8.612;2023-07-31T04:49:27;18.30;91.60
5723;DHT22;2886;49.722;8.612;2023-07-31T04:51:52;18.30;91.80
5723;DHT22;2886;49.722;8.612;2023-07-31T04:54:18;18.30;91.60
5723;DHT22;2886;49.722;8.612;2023-07-31T04:56:44;18.30;91.80
5723;DHT22;2886;49.722;8.612;2023-07-31T04:59:09;18.30;91.60
5723;DHT22;2886;49.722;8.612;2023-07-31T05:01:35;18.30;91.40
5723;DHT22;2886;49.722;8.612;2023-07-31T05:04:00;18.30;91.40
5723;DHT22;2886;49.722;8.612;2023-07-31T05:06:26;18.40;91.10
5723;DHT22;2886;49.722;8.612;2023-07-31T05:08:51;18.40;91.20
5723;DHT22;2886;49.722;8.612;2023-07-31T05:11:17;18.50;91.00
5723;DHT22;2886;49.722;8.612;2023-07-31T05:13:44;18.50;91.20
5723;DHT22;2886;49.722;8.612;2023-07-31T05:16:09;18.50;90.80
5723;DHT22;2886;49.722;8.612;2023-07-31T05:18:35;18.50;90.90
5723;DHT22;2886;49.722;8.612;2023-07-31T05:21:00;18.50;90.80
5723;DHT22;2886;49.722;8.612;2023-07-31T05:23:26;18.60;90.60
5723;DHT22;2886;49.722;8.612;2023-07-31T05:25:51;18.60;90.60
5723;DHT22;2886;49.722;8.612;2023-07-31T05:28:17;18.60;90.60
5723;DHT22;2886;49.722;8.612;2023-07-31T05:30:43;18.70;90.80
5723;DHT22;2886;49.722;8.612;2023-07-31T05:33:08;18.70;90.60
5723;DHT22;2886;49.722;8.612;2023-07-31T05:35:34;18.70;90.40
5723;DHT22;2886;49.722;8.612;2023-07-31T05:37:59;18.80;90.30
5723;DHT22;2886;49.722;8.612;2023-07-31T05:40:26;18.80;90.30
5723;DHT22;2886;49.722;8.612;2023-07-31T05:42:52;18.90;90.00
5723;DHT22;2886;49.722;8.612;2023-07-31T05:45:17;18.90;89.90
5723;DHT22;2886;49.722;8.612;2023-07-31T05:47:43;18.80;89.70
5723;DHT22;2886;49.722;8.612;2023-07-31T05:50:09;18.80;90.00
5723;DHT22;2886;49.722;8.612;2023-07-31T05:52:34;18.90;90.20
5723;DHT22;2886;49.722;8.612;2023-07-31T05:55:00;18.90;89.90
5723;DHT22;2886;49.722;8.612;2023-07-31T05:57:26;19.00;90.30
5723;DHT22;2886;49.722;8.612;2023-07-31T05:59:52;19.00;89.80
5723;DHT22;2886;49.722;8.612;2023-07-31T06:02:18;19.10;90.20
5723;DHT22;2886;49.722;8.612;2023-07-31T06:04:44;19.10;88.70
5723;DHT22;2886;49.722;8.612;2023-07-31T06:07:10;19.10;89.60
5723;DHT22;2886;49.722;8.612;2023-07-31T06:09:36;19.10;89.40
5723;DHT22;2886;49.722;8.612;2023-07-31T06:12:02;19.10;88.90
5723;DHT22;2886;49.722;8.612;2023-07-31T06:14:27;19.20;89.10
5723;DHT22;2886;49.722;8.612;2023-07-31T06:16:53;19.20;88.70
5723;DHT22;2886;49.722;8.612;2023-07-31T06:19:18;19.40;88.40
5723;DHT22;2886;49.722;8.612;2023-07-31T06:21:45;19.40;87.00
5723;DHT22;2886;49.722;8.612;2023-07-31T06:24:11;19.50;87.10
5723;DHT22;2886;49.722;8.612;2023-07-31T06:26:37;19.60;87.50
5723;DHT22;2886;49.722;8.612;2023-07-31T06:29:03;19.60;87.10
5723;DHT22;2886;49.722;8.612;2023-07-31T06:31:28;19.70;86.10
5723;DHT22;2886;49.722;8.612;2023-07-31T06:33:54;19.90;85.30
5723;DHT22;2886;49.722;8.612;2023-07-31T06:36:20;20.00;83.70
5723;DHT22;2886;49.722;8.612;2023-07-31T06:38:45;20.20;83.70
5723;DHT22;2886;49.722;8.612;2023-07-31T06:41:11;20.30;82.00
5723;DHT22;2886;49.722;8.612;2023-07-31T06:43:37;20.30;81.10
5723;DHT22;2886;49.722;8.612;2023-07-31T06:46:06;20.20;81.60
5723;DHT22;2886;49.722;8.612;2023-07-31T06:48:33;20.10;81.10
5723;DHT22;2886;49.722;8.612;2023-07-31T06:50:58;20.00;82.40
5723;DHT22;2886;49.722;8.612;2023-07-31T06:53:24;19.80;83.40
5723;DHT22;2886;49.722;8.612;2023-07-31T06:55:50;19.80;84.40
5723;DHT22;2886;49.722;8.612;2023-07-31T06:58:17;19.80;84.70
5723;DHT22;2886;49.722;8.612;2023-07-31T07:00:43;19.90;84.50
5723;DHT22;2886;49.722;8.612;2023-07-31T07:03:09;20.00;83.80
5723;DHT22;2886;49.722;8.612;2023-07-31T07:05:34;20.10;83.10
5723;DHT22;2886;49.722;8.612;2023-07-31T07:08:00;20.10;83.50
5723;DHT22;2886;49.722;8.612;2023-07-31T07:10:26;20.10;83.20
5723;DHT22;2886;49.722;8.612;2023-07-31T07:12:51;20.20;83.60
5723;DHT22;2886;49.722;8.612;2023-07-31T07:15:17;20.20;82.90
5723;DHT22;2886;49.722;8.612;2023-07-31T07:17:42;20.40;82.20
5723;DHT22;2886;49.722;8.612;2023-07-31T07:20:08;20.40;81.20
5723;DHT22;2886;49.722;8.612;2023-07-31T07:22:34;20.50;82.40
5723;DHT22;2886;49.722;8.612;2023-07-31T07:25:00;20.70;80.10
5723;DHT22;2886;49.722;8.612;2023-07-31T07:27:26;20.90;79.70
5723;DHT22;2886;49.722;8.612;2023-07-31T07:29:52;21.10;80.00
5723;DHT22;2886;49.722;8.612;2023-07-31T07:32:20;21.30;77.10
5723;DHT22;2886;49.722;8.612;2023-07-31T07:34:47;21.40;76.10
5723;DHT22;2886;49.722;8.612;2023-07-31T07:37:13;21.40;75.20
5723;DHT22;2886;49.722;8.612;2023-07-31T07:39:38;21.50;75.80
5723;DHT22;2886;49.722;8.612;2023-07-31T07:42:04;21.50;76.10
5723;DHT22;2886;49.722;8.612;2023-07-31T07:44:30;21.70;74.80
5723;DHT22;2886;49.722;8.612;2023-07-31T07:46:55;21.90;73.70
5723;DHT22;2886;49.722;8.612;2023-07-31T07:49:23;22.00;72.90
5723;DHT22;2886;49.722;8.612;2023-07-31T07:51:49;21.90;72.90
5723;DHT22;2886;49.722;8.612;2023-07-31T07:54:15;21.90;72.40
5723;DHT22;2886;49.722;8.612;2023-07-31T07:56:42;21.90;74.20
5723;DHT22;2886;49.722;8.612;2023-07-31T07:59:08;21.80;73.90
5723;DHT22;2886;49.722;8.612;2023-07-31T08:01:34;21.80;74.70
5723;DHT22;2886;49.722;8.612;2023-07-31T08:03:59;21.90;74.70
5723;DHT22;2886;49.722;8.612;2023-07-31T08:06:25;21.80;74.30
5723;DHT22;2886;49.722;8.612;2023-07-31T08:08:51;21.80;74.90
5723;DHT22;2886;49.722;8.612;2023-07-31T08:11:16;21.90;74.60
5723;DHT22;2886;49.722;8.612;2023-07-31T08:13:42;21.90;74.10
5723;DHT22;2886;49.722;8.612;2023-07-31T08:16:07;22.00;74.60
5723;DHT22;2886;49.722;8.612;2023-07-31T08:18:34;22.10;74.60
5723;DHT22;2886;49.722;8.612;2023-07-31T08:21:01;22.30;74.20
5723;DHT22;2886;49.722;8.612;2023-07-31T08:23:26;22.50;71.70
5723;DHT22;2886;49.722;8.612;2023-07-31T08:25:52;22.70;71.40
5723;DHT22;2886;49.722;8.612;2023-07-31T08:28:17;23.20;67.90
5723;DHT22;2886;49.722;8.612;2023-07-31T08:30:43;23.40;65.00
5723;DHT22;2886;49.722;8.612;2023-07-31T08:33:08;23.80;64.20
5723;DHT22;2886;49.722;8.612;2023-07-31T08:35:34;24.00;61.00
5723;DHT22;2886;49.722;8.612;2023-07-31T08:38:00;23.90;60.60
5723;DHT22;2886;49.722;8.612;2023-07-31T08:40:25;24.00;61.20
5723;DHT22;2886;49.722;8.612;2023-07-31T08:42:54;24.10;57.90
5723;DHT22;2886;49.722;8.612;2023-07-31T08:45:22;23.80;60.00
5723;DHT22;2886;49.722;8.612;2023-07-31T08:47:51;23.60;62.40
5723;DHT22;2886;49.722;8.612;2023-07-31T08:50:19;23.70;62.30
5723;DHT22;2886;49.722;8.612;2023-07-31T08:52:46;23.90;59.00
5723;DHT22;2886;49.722;8.612;2023-07-31T08:55:12;24.00;60.60
5723;DHT22;2886;49.722;8.612;2023-07-31T08:57:39;24.10;58.50
5723;DHT22;2886;49.722;8.612;2023-07-31T09:00:06;23.90;60.20
5723;DHT22;2886;49.722;8.612;2023-07-31T09:05:23;24.10;58.10
5723;DHT22;2886;49.722;8.612;2023-07-31T09:07:49;23.80;60.10
5723;DHT22;2886;49.722;8.612;2023-07-31T09:10:15;23.70;60.80
5723;DHT22;2886;49.722;8.612;2023-07-31T09:12:41;23.70;62.40
5723;DHT22;2886;49.722;8.612;2023-07-31T09:15:07;23.70;61.10
5723;DHT22;2886;49.722;8.612;2023-07-31T09:17:36;23.70;62.80
5723;DHT22;2886;49.722;8.612;2023-07-31T09:22:40;23.70;64.20
5723;DHT22;2886;49.722;8.612;2023-07-31T09:25:23;23.80;63.50
5723;DHT22;2886;49.722;8.612;2023-07-31T09:27:58;23.80;62.70
5723;DHT22;2886;49.722;8.612;2023-07-31T09:30:24;24.00;62.90
5723;DHT22;2886;49.722;8.612;2023-07-31T09:32:51;24.20;60.00
5723;DHT22;2886;49.722;8.612;2023-07-31T09:35:21;24.30;58.60
5723;DHT22;2886;49.722;8.612;2023-07-31T09:37:52;24.10;60.30
5723;DHT22;2886;49.722;8.612;2023-07-31T09:40:28;24.00;60.40
5723;DHT22;2886;49.722;8.612;2023-07-31T09:42:56;24.00;59.60
5723;DHT22;2886;49.722;8.612;2023-07-31T09:45:23;23.90;59.70
5723;DHT22;2886;49.722;8.612;2023-07-31T09:47:49;23.90;59.00
5723;DHT22;2886;49.722;8.612;2023-07-31T09:50:14;24.00;60.40
5723;DHT22;2886;49.722;8.612;2023-07-31T09:52:41;24.10;59.40
5723;DHT22;2886;49.722;8.612;2023-07-31T09:55:08;24.00;59.30
5723;DHT22;2886;49.722;8.612;2023-07-31T09:57:34;23.70;59.80
5723;DHT22;2886;49.722;8.612;2023-07-31T10:00:02;23.60;62.80
5723;DHT22;2886;49.722;8.612;2023-07-31T10:02:28;23.60;62.80
5723;DHT22;2886;49.722;8.612;2023-07-31T10:04:57;23.70;61.50
5723;DHT22;2886;49.722;8.612;2023-07-31T10:07:25;23.90;60.80
5723;DHT22;2886;49.722;8.612;2023-07-31T10:09:51;24.10;58.40
5723;DHT22;2886;49.722;8.612;2023-07-31T10:12:19;24.20;59.20
5723;DHT22;2886;49.722;8.612;2023-07-31T10:14:46;24.40;57.00
5723;DHT22;2886;49.722;8.612;2023-07-31T10:17:13;24.50;57.00
5723;DHT22;2886;49.722;8.612;2023-07-31T10:19:41;25.00;55.70
5723;DHT22;2886;49.722;8.612;2023-07-31T10:22:08;25.30;54.70
5723;DHT22;2886;49.722;8.612;2023-07-31T10:24:34;25.50;52.30
5723;DHT22;2886;49.722;8.612;2023-07-31T10:27:01;25.40;51.90
5723;DHT22;2886;49.722;8.612;2023-07-31T10:29:28;25.40;51.50
5723;DHT22;2886;49.722;8.612;2023-07-31T10:31:57;25.40;51.70
5723;DHT22;2886;49.722;8.612;2023-07-31T10:34:24;25.50;51.80
5723;DHT22;2886;49.722;8.612;2023-07-31T10:36:49;25.60;50.80
5723;DHT22;2886;49.722;8.612;2023-07-31T10:39:35;25.60;50.80
5723;DHT22;2886;49.722;8.612;2023-07-31T10:42:13;25.70;51.20
5723;DHT22;2886;49.722;8.612;2023-07-31T10:44:44;25.80;51.30
5723;DHT22;2886;49.722;8.612;2023-07-31T10:47:13;25.60;50.60
5723;DHT22;2886;49.722;8.612;2023-07-31T10:49:39;25.40;51.70
5723;DHT22;2886;49.722;8.612;2023-07-31T10:52:05;25.50;52.40
5723;DHT22;2886;49.722;8.612;2023-07-31T10:54:35;25.50;52.50
5723;DHT22;2886;49.722;8.612;2023-07-31T10:57:01;25.40;53.60
5723;DHT22;2886;49.722;8.612;2023-07-31T10:59:27;25.30;52.30
5723;DHT22;2886;49.722;8.612;2023-07-31T11:01:55;25.40;51.30
5723;DHT22;2886;49.722;8.612;2023-07-31T11:04:27;25.60;50.30
5723;DHT22;2886;49.722;8.612;2023-07-31T11:07:02;26.00;50.40
5723;DHT22;2886;49.722;8.612;2023-07-31T11:09:31;26.60;47.70
5723;DHT22;2886;49.722;8.612;2023-07-31T11:11:58;26.70;46.80
5723;DHT22;2886;49.722;8.612;2023-07-31T11:14:24;26.90;47.20
5723;DHT22;2886;49.722;8.612;2023-07-31T11:16:50;26.70;46.70
5723;DHT22;2886;49.722;8.612;2023-07-31T11:19:26;26.30;50.60
5723;DHT22;2886;49.722;8.612;2023-07-31T11:21:52;26.00;50.30
5723;DHT22;2886;49.722;8.612;2023-07-31T11:24:21;25.70;53.80
5723;DHT22;2886;49.722;8.612;2023-07-31T11:26:51;25.20;58.80
5723;DHT22;2886;49.722;8.612;2023-07-31T11:29:18;24.90;56.90
5723;DHT22;2886;49.722;8.612;2023-07-31T11:31:44;24.60;65.40
5723;DHT22;2886;49.722;8.612;2023-07-31T11:34:10;24.40;69.30
5723;DHT22;2886;49.722;8.612;2023-07-31T11:36:36;24.10;79.30
5723;DHT22;2886;49.722;8.612;2023-07-31T11:39:08;23.60;83.00
5723;DHT22;2886;49.722;8.612;2023-07-31T11:41:33;23.40;87.70
5723;DHT22;2886;49.722;8.612;2023-07-31T11:44:00;23.40;84.60
5723;DHT22;2886;49.722;8.612;2023-07-31T11:46:26;23.50;86.20
5723;DHT22;2886;49.722;8.612;2023-07-31T11:48:52;23.60;87.60
5723;DHT22;2886;49.722;8.612;2023-07-31T11:51:20;23.90;84.20
5723;DHT22;2886;49.722;8.612;2023-07-31T11:53:51;24.20;82.30
5723;DHT22;2886;49.722;8.612;2023-07-31T11:56:20;24.10;81.50
5723;DHT22;2886;49.722;8.612;2023-07-31T11:58:47;24.10;80.20
5723;DHT22;2886;49.722;8.612;2023-07-31T12:01:15;24.10;86.00
5723;DHT22;2886;49.722;8.612;2023-07-31T12:03:41;24.30;79.80
5723;DHT22;2886;49.722;8.612;2023-07-31T12:06:08;24.60;78.80
5723;DHT22;2886;49.722;8.612;2023-07-31T12:08:33;24.70;77.60
5723;DHT22;2886;49.722;8.612;2023-07-31T12:11:07;24.80;74.40
5723;DHT22;2886;49.722;8.612;2023-07-31T12:13:35;25.00;74.40
5723;DHT22;2886;49.722;8.612;2023-07-31T12:16:02;25.10;68.30
5723;DHT22;2886;49.722;8.612;2023-07-31T12:18:30;25.00;65.90
5723;DHT22;2886;49.722;8.612;2023-07-31T12:20:57;24.80;70.40
5723;DHT22;2886;49.722;8.612;2023-07-31T12:23:29;24.70;65.30
5723;DHT22;2886;49.722;8.612;2023-07-31T12:26:07;24.40;64.80
5723;DHT22;2886;49.722;8.612;2023-07-31T12:28:43;24.30;64.90
5723;DHT22;2886;49.722;8.612;2023-07-31T12:31:11;24.10;68.20
5723;DHT22;2886;49.722;8.612;2023-07-31T12:33:38;24.00;68.80
5723;DHT22;2886;49.722;8.612;2023-07-31T12:36:13;24.00;67.00
5723;DHT22;2886;49.722;8.612;2023-07-31T12:38:40;23.80;67.50
5723;DHT22;2886;49.722;8.612;2023-07-31T12:41:05;23.80;67.10
5723;DHT22;2886;49.722;8.612;2023-07-31T12:43:38;23.70;65.10
5723;DHT22;2886;49.722;8.612;2023-07-31T12:46:04;23.60;62.30
5723;DHT22;2886;49.722;8.612;2023-07-31T12:48:30;23.50;64.80
5723;DHT22;2886;49.722;8.612;2023-07-31T12:50:56;23.30;65.30
5723;DHT22;2886;49.722;8.612;2023-07-31T12:53:22;23.30;64.20
5723;DHT22;2886;49.722;8.612;2023-07-31T12:55:47;23.30;61.70
5723;DHT22;2886;49.722;8.612;2023-07-31T12:58:13;23.20;65.60
5723;DHT22;2886;49.722;8.612;2023-07-31T13:00:38;23.20;65.80
5723;DHT22;2886;49.722;8.612;2023-07-31T13:03:04;23.10;65.20
5723;DHT22;2886;49.722;8.612;2023-07-31T13:05:30;23.20;64.00
5723;DHT22;2886;49.722;8.612;2023-07-31T13:07:56;23.30;64.10
5723;DHT22;2886;49.722;8.612;2023-07-31T13:10:23;23.30;63.70
5723;DHT22;2886;49.722;8.612;2023-07-31T13:12:48;23.30;64.60
5723;DHT22;2886;49.722;8.612;2023-07-31T13:15:14;23.40;65.50
5723;DHT22;2886;49.722;8.612;2023-07-31T13:17:40;23.50;66.30
5723;DHT22;2886;49.722;8.612;2023-07-31T13:20:06;23.60;66.00
5723;DHT22;2886;49.722;8.612;2023-07-31T13:22:32;23.80;64.40
5723;DHT22;2886;49.722;8.612;2023-07-31T13:24:58;24.00;61.50
5723;DHT22;2886;49.722;8.612;2023-07-31T13:27:23;24.10;62.20
5723;DHT22;2886;49.722;8.612;2023-07-31T13:29:50;24.10;60.00
5723;DHT22;2886;49.722;8.612;2023-07-31T13:32:17;24.10;61.20
5723;DHT22;2886;49.722;8.612;2023-07-31T13:34:43;24.00;59.60
5723;DHT22;2886;49.722;8.612;2023-07-31T13:37:08;23.70;60.90
5723;DHT22;2886;49.722;8.612;2023-07-31T13:39:34;23.60;63.00
5723;DHT22;2886;49.722;8.612;2023-07-31T13:42:00;23.60;65.10
5723;DHT22;2886;49.722;8.612;2023-07-31T13:44:26;23.50;64.60
5723;DHT22;2886;49.722;8.612;2023-07-31T13:46:54;23.40;65.30
5723;DHT22;2886;49.722;8.612;2023-07-31T13:49:19;23.40;66.50
5723;DHT22;2886;49.722;8.612;2023-07-31T13:51:45;23.30;67.70
5723;DHT22;2886;49.722;8.612;2023-07-31T13:54:11;23.30;66.40
5723;DHT22;2886;49.722;8.612;2023-07-31T13:56:37;23.30;66.80
5723;DHT22;2886;49.722;8.612;2023-07-31T13:59:03;23.30;66.60
5723;DHT22;2886;49.722;8.612;2023-07-31T14:01:29;23.20;67.80
5723;DHT22;2886;49.722;8.612;2023-07-31T14:03:55;23.10;68.30
5723;DHT22;2886;49.722;8.612;2023-07-31T14:06:20;23.10;69.50
5723;DHT22;2886;49.722;8.612;2023-07-31T14:08:46;23.10;70.60
5723;DHT22;2886;49.722;8.612;2023-07-31T14:11:12;23.00;69.90
5723;DHT22;2886;49.722;8.612;2023-07-31T14:13:37;23.10;71.00
5723;DHT22;2886;49.722;8.612;2023-07-31T14:16:03;23.00;70.90
5723;DHT22;2886;49.722;8.612;2023-07-31T14:18:29;23.10;72.00
5723;DHT22;2886;49.722;8.612;2023-07-31T14:20:54;23.00;70.40
5723;DHT22;2886;49.722;8.612;2023-07-31T14:23:20;23.10;70.90
5723;DHT22;2886;49.722;8.612;2023-07-31T14:25:46;23.20;70.00
5723;DHT22;2886;49.722;8.612;2023-07-31T14:28:12;23.30;68.70
5723;DHT22;2886;49.722;8.612;2023-07-31T14:30:38;23.40;67.80
5723;DHT22;2886;49.722;8.612;2023-07-31T14:33:03;23.40;70.00
5723;DHT22;2886;49.722;8.612;2023-07-31T14:35:29;23.40;68.40
5723;DHT22;2886;49.722;8.612;2023-07-31T14:37:54;23.50;68.40
5723;DHT22;2886;49.722;8.612;2023-07-31T14:40:20;23.50;68.00
5723;DHT22;2886;49.722;8.612;2023-07-31T14:42:46;23.50;67.70
5723;DHT22;2886;49.722;8.612;2023-07-31T14:45:11;23.50;68.90
5723;DHT22;2886;49.722;8.612;2023-07-31T14:47:37;23.50;68.60
5723;DHT22;2886;49.722;8.612;2023-07-31T14:50:03;23.50;67.30
5723;DHT22;2886;49.722;8.612;2023-07-31T14:52:29;23.50;66.40
5723;DHT22;2886;49.722;8.612;2023-07-31T14:54:55;23.60;67.90
5723;DHT22;2886;49.722;8.612;2023-07-31T14:57:21;23.80;67.60
5723;DHT22;2886;49.722;8.612;2023-07-31T14:59:47;24.00;64.40
5723;DHT22;2886;49.722;8.612;2023-07-31T15:02:14;24.10;64.40
5723;DHT22;2886;49.722;8.612;2023-07-31T15:04:40;24.40;63.40
5723;DHT22;2886;49.722;8.612;2023-07-31T15:07:05;24.60;61.70
5723;DHT22;2886;49.722;8.612;2023-07-31T15:09:31;24.80;60.30
5723;DHT22;2886;49.722;8.612;2023-07-31T15:11:57;24.70;61.10
5723;DHT22;2886;49.722;8.612;2023-07-31T15:14:23;24.60;62.30
5723;DHT22;2886;49.722;8.612;2023-07-31T15:16:49;24.40;61.80
5723;DHT22;2886;49.722;8.612;2023-07-31T15:19:15;24.20;63.10
5723;DHT22;2886;49.722;8.612;2023-07-31T15:21:41;24.00;63.30
5723;DHT22;2886;49.722;8.612;2023-07-31T15:24:06;24.00;63.70
5723;DHT22;2886;49.722;8.612;2023-07-31T15:26:32;24.00;62.20
5723;DHT22;2886;49.722;8.612;2023-07-31T15:29:05;24.00;62.00
5723;DHT22;2886;49.722;8.612;2023-07-31T15:31:41;23.90;62.40
5723;DHT22;2886;49.722;8.612;2023-07-31T15:34:06;23.90;60.50
5723;DHT22;2886;49.722;8.612;2023-07-31T15:36:33;23.90;60.90
5723;DHT22;2886;49.722;8.612;2023-07-31T15:38:59;23.90;61.70
5723;DHT22;2886;49.722;8.612;2023-07-31T15:41:25;24.00;61.30
5723;DHT22;2886;49.722;8.612;2023-07-31T15:43:51;24.00;62.90
5723;DHT22;2886;49.722;8.612;2023-07-31T15:46:17;24.00;63.50
5723;DHT22;2886;49.722;8.612;2023-07-31T15:48:44;24.00;62.70
5723;DHT22;2886;49.722;8.612;2023-07-31T15:51:10;24.10;60.50
5723;DHT22;2886;49.722;8.612;2023-07-31T15:53:36;24.10;60.80
5723;DHT22;2886;49.722;8.612;2023-07-31T15:56:02;24.10;59.10
5723;DHT22;2886;49.722;8.612;2023-07-31T15:58:28;24.00;58.50
5723;DHT22;2886;49.722;8.612;2023-07-31T16:00:54;23.90;58.30
5723;DHT22;2886;49.722;8.612;2023-07-31T16:03:20;24.10;59.10
5723;DHT22;2886;49.722;8.612;2023-07-31T16:05:47;24.10;58.30
5723;DHT22;2886;49.722;8.612;2023-07-31T16:08:13;24.20;58.60